Time;durP1;ratioP1;P1;durP2;ratioP2;P2;SDS_P1;SDS_P2;PMS_P1;PMS_P2;Temp;Humidity;BMP_temperature;BMP_pressure;BME280_temperature;BME280_humidity;BME280_pressure;Samples;Min_cycle;Max_cycle;Signal;HPM_P1;HPM_P2
2023/07/02 00:01:49;;;;;;;10.33;1.87;;;;;;;15.92;nan;100233.66;4954811;29;20194;-77
2023/07/02 00:04:19;;;;;;;1.50;1.40;;;;;;;15.97;nan;100230.63;4955849;28;20240;-77
2023/07/02 00:06:45;;;;;;;4.33;1.40;;;;;;;15.95;nan;100221.94;4956360;28;20292;-77
2023/07/02 00:09:11;;;;;;;0.43;0.43;;;;;;;16.01;nan;100217.75;4955608;28;20206;-77
2023/07/02 00:11:38;;;;;;;11.20;2.07;;;;;;;15.91;nan;100232.06;4955965;28;20194;-77
2023/07/02 00:14:04;;;;;;;3.20;2.47;;;;;;;15.90;nan;100215.84;4955863;29;20186;-76
2023/07/02 00:16:30;;;;;;;4.10;1.03;;;;;;;15.94;nan;100225.84;4956011;28;20273;-77
2023/07/02 00:18:55;;;;;;;5.47;4.17;;;;;;;15.90;nan;100222.16;4955885;28;20269;-77
2023/07/02 00:21:20;;;;;;;1.43;1.33;;;;;;;15.90;nan;100224.91;4918163;28;1104855;-77
2023/07/02 00:23:47;;;;;;;0.40;0.40;;;;;;;15.80;nan;100214.44;4957093;28;20187;-77
2023/07/02 00:26:12;;;;;;;14.33;0.73;;;;;;;15.75;nan;100229.22;4956976;28;20190;-77
2023/07/02 00:28:37;;;;;;;1.47;1.37;;;;;;;15.76;nan;100219.81;4956908;28;20213;-77
2023/07/02 00:31:03;;;;;;;0.80;0.77;;;;;;;15.75;nan;100217.41;4956817;28;20187;-76
2023/07/02 00:33:31;;;;;;;1.43;1.33;;;;;;;15.68;nan;100200.72;4956726;29;20449;-77
2023/07/02 00:35:56;;;;;;;2.07;1.13;;;;;;;15.73;nan;100208.72;4956758;29;20190;-77
2023/07/02 00:38:22;;;;;;;3.93;1.60;;;;;;;15.77;nan;100215.94;4956520;28;20296;-77
2023/07/02 00:40:47;;;;;;;0.40;0.40;;;;;;;15.62;nan;100210.34;4956617;28;20294;-77
2023/07/02 00:43:13;;;;;;;1.43;1.33;;;;;;;15.61;nan;100233.53;4955323;29;20232;-77
2023/07/02 00:45:41;;;;;;;2.97;1.67;;;;;;;15.68;nan;100264.84;4956696;28;20251;-77
2023/07/02 00:48:06;;;;;;;1.40;1.37;;;;;;;15.66;nan;100280.94;4956284;28;20213;-77
2023/07/02 00:50:32;;;;;;;0.47;0.47;;;;;;;15.69;nan;100273.91;4956475;28;20183;-76
2023/07/02 00:52:58;;;;;;;1.20;0.93;;;;;;;15.61;nan;100272.91;4956228;28;20214;-77
2023/07/02 00:55:23;;;;;;;1.70;1.40;;;;;;;15.65;nan;100276.56;4956390;28;20209;-77
2023/07/02 00:57:49;;;;;;;1.80;1.70;;;;;;;15.66;nan;100285.66;4956243;28;20214;-77
2023/07/02 01:00:15;;;;;;;1.30;1.23;;;;;;;15.63;nan;100276.13;4956213;28;20197;-77
2023/07/02 01:02:44;;;;;;;1.70;1.60;;;;;;;15.58;nan;100270.03;4954788;29;20206;-77
2023/07/02 01:05:21;;;;;;;0.70;0.70;;;;;;;15.64;nan;100268.66;4954959;29;20199;-76
2023/07/02 01:07:46;;;;;;;1.03;1.03;;;;;;;15.58;nan;100281.03;4956086;28;20205;-77
2023/07/02 01:10:12;;;;;;;1.40;1.30;;;;;;;15.60;nan;100271.28;4956008;28;20186;-76
2023/07/02 01:12:38;;;;;;;1.60;1.47;;;;;;;15.67;nan;100259.69;4956148;28;20218;-77
2023/07/02 01:15:05;;;;;;;0.60;0.47;;;;;;;15.68;nan;100270.38;4956301;28;20190;-77
2023/07/02 01:17:39;;;;;;;5.80;1.07;;;;;;;15.55;nan;100259.72;4956508;28;20179;-77
2023/07/02 01:20:08;;;;;;;0.73;0.73;;;;;;;15.66;nan;100258.91;4955905;29;20183;-77
2023/07/02 01:22:34;;;;;;;2.60;1.97;;;;;;;15.58;nan;100256.25;4956008;28;20194;-77
2023/07/02 01:24:59;;;;;;;4.37;1.30;;;;;;;15.50;nan;100248.94;4955933;29;20245;-77
2023/07/02 01:27:28;;;;;;;2.00;1.90;;;;;;;15.39;nan;100243.94;4955729;28;20472;-77
2023/07/02 01:29:54;;;;;;;1.07;1.00;;;;;;;15.48;nan;100241.84;4954186;29;20206;-77
2023/07/02 01:32:20;;;;;;;3.43;0.87;;;;;;;15.49;nan;100228.88;4954567;29;20190;-76
2023/07/02 01:34:48;;;;;;;3.30;1.33;;;;;;;15.45;nan;100220.50;4955734;28;20293;-77
2023/07/02 01:37:17;;;;;;;0.87;0.73;;;;;;;15.45;nan;100226.00;4955765;28;20637;-77
2023/07/02 01:39:43;;;;;;;1.17;1.17;;;;;;;15.55;nan;100221.97;4955249;28;20206;-77
2023/07/02 01:42:16;;;;;;;0.50;0.40;;;;;;;15.53;nan;100223.47;4955419;28;20650;-77
2023/07/02 01:44:42;;;;;;;0.00;0.00;;;;;;;15.49;nan;100226.13;4955406;28;20183;-77
2023/07/02 01:47:08;;;;;;;0.70;0.70;;;;;;;15.47;nan;100237.47;4953742;29;20214;-77
2023/07/02 01:49:33;;;;;;;2.60;1.20;;;;;;;15.45;nan;100230.69;4954991;28;20272;-77
2023/07/02 01:51:59;;;;;;;0.50;0.50;;;;;;;15.46;nan;100241.38;4953299;29;20190;-77
2023/07/02 01:54:29;;;;;;;1.60;0.97;;;;;;;15.41;nan;100235.31;4954519;28;20182;-77
2023/07/02 01:56:55;;;;;;;0.77;0.77;;;;;;;15.45;nan;100245.28;4955308;28;20174;-77
2023/07/02 01:59:21;;;;;;;0.37;0.37;;;;;;;15.37;nan;100237.97;4954808;29;20706;-76
2023/07/02 02:01:46;;;;;;;1.30;0.73;;;;;;;15.37;nan;100246.22;4955066;28;20178;-77
2023/07/02 02:04:12;;;;;;;0.67;0.67;;;;;;;15.27;nan;100248.66;4955191;28;20549;-77
2023/07/02 02:06:38;;;;;;;0.83;0.83;;;;;;;15.20;nan;100251.22;4954752;28;20218;-77
2023/07/02 02:09:04;;;;;;;0.37;0.37;;;;;;;15.15;nan;100260.47;4954877;28;20621;-77
2023/07/02 02:11:31;;;;;;;1.17;1.03;;;;;;;15.22;nan;100268.19;4955170;28;20234;-76
2023/07/02 02:13:57;;;;;;;2.60;0.70;;;;;;;15.28;nan;100272.28;4954961;28;20183;-77
2023/07/02 02:16:23;;;;;;;0.40;0.40;;;;;;;15.25;nan;100242.69;4954885;28;20182;-76
2023/07/02 02:18:51;;;;;;;2.20;1.97;;;;;;;15.22;nan;100238.69;4954086;28;20206;-77
2023/07/02 02:21:17;;;;;;;3.50;1.67;;;;;;;15.21;nan;100250.06;4954439;28;20201;-77
2023/07/02 02:23:43;;;;;;;2.27;2.07;;;;;;;15.27;nan;100245.91;4954541;28;20183;-77
2023/07/02 02:26:08;;;;;;;1.47;1.33;;;;;;;15.13;nan;100260.03;4954841;28;20191;-77
2023/07/02 02:28:33;;;;;;;5.20;1.50;;;;;;;15.25;nan;100254.50;4953375;29;20253;-77
2023/07/02 02:30:59;;;;;;;2.30;2.20;;;;;;;15.25;nan;100251.75;4954621;28;20648;-77
2023/07/02 02:33:25;;;;;;;9.40;2.47;;;;;;;15.22;nan;100249.72;4953414;29;20190;-77
2023/07/02 02:35:50;;;;;;;6.70;1.90;;;;;;;15.34;nan;100257.16;4954577;28;20261;-77
2023/07/02 02:38:16;;;;;;;1.13;1.07;;;;;;;15.32;nan;100260.22;4954439;28;20640;-77
2023/07/02 02:40:41;;;;;;;2.30;2.20;;;;;;;15.27;nan;100252.22;4954564;28;20198;-77
2023/07/02 02:43:06;;;;;;;2.77;1.37;;;;;;;15.21;nan;100248.09;4954490;28;20643;-77
2023/07/02 02:45:32;;;;;;;0.40;0.40;;;;;;;15.26;nan;100258.88;4954481;28;20178;-77
2023/07/02 02:47:57;;;;;;;2.23;2.03;;;;;;;15.26;nan;100261.63;4954296;28;20245;-78
2023/07/02 02:50:22;;;;;;;1.70;1.60;;;;;;;15.24;nan;100263.91;4954300;28;20179;-77
2023/07/02 02:52:48;;;;;;;4.87;2.53;;;;;;;15.23;nan;100258.75;4954415;28;20183;-77
2023/07/02 02:55:14;;;;;;;2.77;2.57;;;;;;;15.18;nan;100246.81;4954716;28;20669;-76
2023/07/02 02:57:39;;;;;;;2.67;2.47;;;;;;;15.20;nan;100248.47;4954235;28;20182;-77
2023/07/02 03:00:06;;;;;;;0.57;0.47;;;;;;;15.12;nan;100261.19;4954031;28;20241;-77
2023/07/02 03:02:32;;;;;;;6.30;2.77;;;;;;;15.17;nan;100261.72;4952633;29;20187;-77
2023/07/02 03:05:02;;;;;;;1.80;1.10;;;;;;;15.11;nan;100243.88;4954191;28;20710;-77
2023/07/02 03:07:28;;;;;;;2.50;2.40;;;;;;;15.20;nan;100245.69;4953529;28;20204;-77
2023/07/02 03:09:53;;;;;;;0.23;0.23;;;;;;;15.25;nan;100227.00;4953252;28;20206;-77
2023/07/02 03:12:19;;;;;;;2.07;1.97;;;;;;;15.27;nan;100249.47;4952404;29;20196;-77
2023/07/02 03:14:44;;;;;;;0.00;0.00;;;;;;;15.26;nan;100241.56;4953891;28;20270;-77
2023/07/02 03:17:10;;;;;;;7.27;1.90;;;;;;;15.32;nan;100243.69;4953647;28;20174;-77
2023/07/02 03:19:35;;;;;;;0.53;0.43;;;;;;;15.37;nan;100253.69;4953761;28;20202;-77
2023/07/02 03:22:00;;;;;;;2.47;2.37;;;;;;;15.34;nan;100252.44;4952121;29;20198;-77
2023/07/02 03:24:26;;;;;;;1.60;1.50;;;;;;;15.36;nan;100239.13;4952586;29;20182;-77
2023/07/02 03:26:51;;;;;;;2.10;2.00;;;;;;;15.36;nan;100235.56;4953482;28;20198;-77
2023/07/02 03:29:19;;;;;;;3.40;3.13;;;;;;;15.34;nan;100224.91;4952906;28;20206;-77
2023/07/02 03:31:44;;;;;;;2.87;2.67;;;;;;;15.31;nan;100230.28;4952172;29;20277;-77
2023/07/02 03:34:10;;;;;;;2.20;2.10;;;;;;;15.31;nan;100216.53;4953593;28;20270;-77
2023/07/02 03:36:37;;;;;;;1.23;1.23;;;;;;;15.34;nan;100233.16;4952765;29;20545;-77
2023/07/02 03:39:03;;;;;;;2.10;2.00;;;;;;;15.29;nan;100227.88;4953599;28;20206;-77
2023/07/02 03:41:28;;;;;;;7.07;2.53;;;;;;;15.30;nan;100236.94;4953560;29;20178;-77
2023/07/02 03:43:54;;;;;;;2.50;1.73;;;;;;;15.26;nan;100228.59;4952113;29;20232;-77
2023/07/02 03:46:19;;;;;;;1.60;1.50;;;;;;;15.30;nan;100218.47;4953667;28;20183;-77
2023/07/02 03:48:45;;;;;;;1.67;1.57;;;;;;;15.31;nan;100225.59;4953310;28;20576;-77
2023/07/02 03:51:12;;;;;;;2.93;2.73;;;;;;;15.36;nan;100217.09;4953485;28;20600;-76
2023/07/02 03:53:37;;;;;;;1.23;1.23;;;;;;;15.41;nan;100225.09;4952432;29;20269;-77
2023/07/02 03:56:03;;;;;;;1.87;1.73;;;;;;;15.46;nan;100226.78;4953589;29;20222;-77
2023/07/02 03:58:28;;;;;;;1.77;1.67;;;;;;;15.53;nan;100226.22;4953421;28;20209;-76
2023/07/02 04:00:53;;;;;;;6.13;2.47;;;;;;;15.51;nan;100229.31;4953219;28;20189;-77
2023/07/02 04:03:19;;;;;;;1.03;1.03;;;;;;;15.51;nan;100225.78;4953552;28;20378;-77
2023/07/02 04:05:44;;;;;;;2.80;2.70;;;;;;;15.48;nan;100230.81;4953640;28;20590;-77
2023/07/02 04:08:09;;;;;;;1.50;1.40;;;;;;;15.63;nan;100226.56;4952038;29;20207;-77
2023/07/02 04:10:35;;;;;;;3.10;2.83;;;;;;;15.63;nan;100234.81;4953069;28;20182;-77
2023/07/02 04:13:01;;;;;;;1.20;1.20;;;;;;;15.65;nan;100231.72;4952834;28;20174;-77
2023/07/02 04:15:26;;;;;;;2.47;2.17;;;;;;;15.56;nan;100236.53;4953119;28;20175;-77
2023/07/02 04:17:52;;;;;;;0.30;0.30;;;;;;;15.67;nan;100245.94;4953251;28;20365;-77
2023/07/02 04:20:18;;;;;;;0.03;0.03;;;;;;;15.67;nan;100240.41;4952999;28;20183;-77
2023/07/02 04:22:47;;;;;;;2.40;2.17;;;;;;;15.67;nan;100238.47;4953255;28;20198;-77
2023/07/02 04:25:15;;;;;;;2.47;2.37;;;;;;;15.70;nan;100239.72;4951960;29;20182;-77
2023/07/02 04:27:41;;;;;;;1.60;1.50;;;;;;;15.79;nan;100239.56;4951434;29;20206;-77
2023/07/02 04:30:08;;;;;;;0.20;0.20;;;;;;;15.90;nan;100252.47;4953082;29;20262;-77
2023/07/02 04:32:33;;;;;;;2.70;2.50;;;;;;;15.87;nan;100238.59;4953239;28;20230;-77
2023/07/02 04:34:59;;;;;;;4.50;1.10;;;;;;;15.79;nan;100223.03;4953289;28;20178;-76
2023/07/02 04:37:24;;;;;;;2.60;2.03;;;;;;;15.87;nan;100239.41;4953179;28;20599;-76
2023/07/02 04:39:49;;;;;;;1.87;1.27;;;;;;;15.88;nan;100235.50;4952844;28;20283;-77
2023/07/02 04:42:14;;;;;;;0.30;0.30;;;;;;;15.89;nan;100233.53;4955238;28;20200;-77
2023/07/02 04:44:43;;;;;;;1.67;1.57;;;;;;;15.96;nan;100248.31;4956652;28;20258;-77
2023/07/02 04:47:08;;;;;;;2.40;2.30;;;;;;;15.95;nan;100237.66;4956449;28;20202;-77
2023/07/02 04:49:33;;;;;;;2.03;1.93;;;;;;;15.92;nan;100252.94;4956440;28;20206;-77
2023/07/02 04:51:59;;;;;;;2.00;1.90;;;;;;;15.94;nan;100263.59;4957750;28;20333;-77
2023/07/02 04:54:24;;;;;;;3.20;2.90;;;;;;;15.89;nan;100269.34;4957552;28;20655;-77
2023/07/02 04:56:50;;;;;;;5.03;2.73;;;;;;;15.54;nan;100283.69;4956627;28;20194;-77
2023/07/02 04:59:15;;;;;;;4.53;4.13;;;;;;;15.08;nan;100255.56;4954941;29;20202;-77
2023/07/02 05:01:41;;;;;;;2.23;2.10;;;;;;;14.48;nan;100220.66;4956290;28;20189;-78
2023/07/02 05:04:09;;;;;;;7.93;3.23;;;;;;;14.04;nan;100219.53;4959012;28;20253;-78
2023/07/02 05:06:34;;;;;;;4.20;3.80;;;;;;;13.64;nan;100215.41;4960662;28;20652;-78
2023/07/02 05:09:00;;;;;;;1.43;1.33;;;;;;;13.62;nan;100222.38;4960086;28;20198;-78
2023/07/02 05:11:25;;;;;;;16.97;3.93;;;;;;;13.61;nan;100240.78;4960626;28;20197;-78
2023/07/02 05:13:51;;;;;;;3.57;2.60;;;;;;;13.48;nan;100244.63;4960609;28;20179;-78
2023/07/02 05:16:16;;;;;;;5.13;4.20;;;;;;;13.40;nan;100224.31;4960215;28;20186;-78
2023/07/02 05:18:42;;;;;;;7.37;4.43;;;;;;;13.43;nan;100225.59;4959056;29;20206;-78
2023/07/02 05:21:07;;;;;;;6.83;3.30;;;;;;;13.31;nan;100242.00;4960278;28;20198;-78
2023/07/02 05:23:33;;;;;;;4.07;3.47;;;;;;;13.29;nan;100244.25;4959359;29;20313;-79
2023/07/02 05:25:58;;;;;;;8.20;3.87;;;;;;;13.21;nan;100236.91;4959213;29;20622;-78
2023/07/02 05:28:24;;;;;;;3.90;3.53;;;;;;;13.13;nan;100243.22;4959071;29;20219;-77
2023/07/02 05:30:50;;;;;;;3.30;2.27;;;;;;;13.20;nan;100246.28;4960252;28;20205;-78
2023/07/02 05:33:15;;;;;;;6.10;3.83;;;;;;;13.17;nan;100230.47;4959880;28;20589;-78
2023/07/02 05:35:40;;;;;;;4.67;3.20;;;;;;;13.23;nan;100226.41;4960318;28;20290;-78
2023/07/02 05:38:06;;;;;;;4.80;3.67;;;;;;;13.23;nan;100231.88;4960283;28;20668;-78
2023/07/02 05:40:31;;;;;;;3.90;3.20;;;;;;;13.33;nan;100247.97;4960538;28;20619;-78
2023/07/02 05:42:56;;;;;;;7.30;5.67;;;;;;;13.46;nan;100268.84;4959941;28;20191;-78
2023/07/02 05:45:23;;;;;;;9.57;3.30;;;;;;;13.51;nan;100268.63;4959428;29;20237;-78
2023/07/02 05:47:48;;;;;;;2.47;2.30;;;;;;;13.59;nan;100283.41;4958601;29;20577;-78
2023/07/02 05:50:14;;;;;;;10.33;4.57;;;;;;;13.70;nan;100284.63;4959512;28;20187;-78
2023/07/02 05:52:39;;;;;;;11.00;3.70;;;;;;;13.76;nan;100305.25;4959392;28;20179;-79
2023/07/02 05:55:10;;;;;;;12.93;5.27;;;;;;;13.66;nan;100284.50;4958662;28;20186;-78
2023/07/02 05:57:36;;;;;;;6.00;4.23;;;;;;;13.84;nan;100285.16;4959355;28;20186;-78
2023/07/02 06:00:01;;;;;;;5.97;4.00;;;;;;;13.85;nan;100272.22;4958046;28;20217;-77
2023/07/02 06:02:26;;;;;;;10.40;5.23;;;;;;;13.95;nan;100282.78;4958211;29;20186;-78
2023/07/02 06:04:52;;;;;;;2.93;2.73;;;;;;;14.10;nan;100295.09;4958144;28;20182;-78
2023/07/02 06:07:17;;;;;;;9.13;4.80;;;;;;;14.17;nan;100295.31;4957838;28;20680;-78
2023/07/02 06:09:42;;;;;;;4.10;3.80;;;;;;;14.35;nan;100293.22;4960312;28;20206;-79
2023/07/02 06:12:08;;;;;;;5.27;3.73;;;;;;;14.40;nan;100304.78;4961830;28;20663;-80
2023/07/02 06:14:33;;;;;;;2.93;2.70;;;;;;;14.48;nan;100303.13;4962926;28;20194;-80
2023/07/02 06:17:00;;;;;;;3.20;2.90;;;;;;;14.56;nan;100302.22;4962992;29;20648;-81
2023/07/02 06:19:26;;;;;;;3.87;2.70;;;;;;;14.68;nan;100310.47;4963106;28;20289;-80
2023/07/02 06:21:51;;;;;;;17.13;5.07;;;;;;;14.85;nan;100295.69;4964472;28;20273;-82
2023/07/02 06:24:16;;;;;;;7.13;2.47;;;;;;;14.91;nan;100305.34;4963314;28;20193;-81
2023/07/02 06:26:42;;;;;;;13.97;3.17;;;;;;;15.01;nan;100312.31;4960665;29;20209;-80
2023/07/02 06:29:07;;;;;;;11.93;4.67;;;;;;;14.97;nan;100300.41;4961064;29;20387;-79
2023/07/02 06:31:32;;;;;;;23.63;5.17;;;;;;;15.04;nan;100295.91;4961674;28;20568;-79
2023/07/02 06:33:57;;;;;;;6.60;2.43;;;;;;;15.15;nan;100290.75;4954417;29;20207;-78
2023/07/02 06:36:23;;;;;;;17.57;4.13;;;;;;;15.22;nan;100310.25;4959555;29;20189;-78
2023/07/02 06:38:48;;;;;;;6.80;4.47;;;;;;;15.28;nan;100297.84;4958935;28;20219;-79
2023/07/02 06:41:14;;;;;;;2.70;2.50;;;;;;;15.41;nan;100310.44;4959100;28;20186;-78
2023/07/02 06:43:42;;;;;;;3.33;3.07;;;;;;;15.42;nan;100305.75;4958607;29;20213;-79
2023/07/02 06:46:10;;;;;;;9.30;3.40;;;;;;;15.48;nan;100309.88;4959536;28;20314;-77
2023/07/02 06:48:35;;;;;;;4.57;3.93;;;;;;;15.51;nan;100303.66;4959111;28;20222;-79
2023/07/02 06:51:00;;;;;;;3.40;3.07;;;;;;;15.75;nan;100330.34;4959639;28;20193;-79
2023/07/02 06:53:26;;;;;;;10.67;2.87;;;;;;;15.93;nan;100337.22;4958628;28;20195;-78
2023/07/02 06:55:51;;;;;;;4.63;3.27;;;;;;;16.10;nan;100343.56;4956964;29;20656;-78
2023/07/02 06:58:16;;;;;;;3.53;3.33;;;;;;;16.13;nan;100326.31;4958595;28;20232;-78
2023/07/02 07:00:42;;;;;;;2.53;2.33;;;;;;;16.35;nan;100331.28;4975354;28;20186;-80
2023/07/02 07:03:07;;;;;;;5.67;4.17;;;;;;;16.38;nan;100340.81;4959702;29;20200;-80
2023/07/02 07:05:33;;;;;;;11.23;4.10;;;;;;;16.47;nan;100342.22;4959716;29;20238;-79
2023/07/02 07:08:00;;;;;;;10.20;4.53;;;;;;;16.46;nan;100329.59;4959383;28;20285;-78
2023/07/02 07:10:26;;;;;;;7.43;3.70;;;;;;;16.54;nan;100333.34;4957263;29;20759;-77
2023/07/02 07:12:51;;;;;;;7.10;3.60;;;;;;;16.53;nan;100334.50;4972196;23;20702;-77
2023/07/02 07:15:16;;;;;;;5.57;3.30;;;;;;;16.64;nan;100349.38;4953531;28;20547;-78
2023/07/02 07:17:41;;;;;;;7.53;1.60;;;;;;;16.72;nan;100347.63;4955498;29;20189;-79
2023/07/02 07:20:07;;;;;;;6.10;3.10;;;;;;;16.71;nan;100346.03;4956948;29;20189;-81
2023/07/02 07:22:33;;;;;;;10.83;2.90;;;;;;;16.72;nan;100331.88;4959474;29;20210;-80
2023/07/02 07:24:58;;;;;;;12.40;3.63;;;;;;;16.82;nan;100333.31;4959035;29;20183;-80
2023/07/02 07:27:24;;;;;;;3.13;2.93;;;;;;;16.82;nan;100333.31;4957478;29;20198;-81
2023/07/02 07:29:49;;;;;;;2.40;1.87;;;;;;;16.92;nan;100336.34;4959494;29;20202;-81
2023/07/02 07:32:14;;;;;;;4.73;2.37;;;;;;;16.98;nan;100328.59;4957522;29;20249;-79
2023/07/02 07:34:40;;;;;;;2.13;1.33;;;;;;;17.07;nan;100337.50;4958110;29;20202;-81
2023/07/02 07:37:05;;;;;;;4.90;1.20;;;;;;;17.13;nan;100330.53;4957995;29;20537;-80
2023/07/02 07:39:31;;;;;;;9.70;1.43;;;;;;;17.14;nan;100336.84;4958999;29;20186;-79
2023/07/02 07:41:56;;;;;;;10.77;3.03;;;;;;;17.24;nan;100355.63;4957980;29;20193;-82
2023/07/02 07:44:21;;;;;;;11.17;4.00;;;;;;;17.02;nan;100321.19;4957984;29;20234;-80
2023/07/02 07:46:47;;;;;;;7.20;3.80;;;;;;;16.90;nan;100313.00;4956289;29;20665;-83
2023/07/02 07:49:13;;;;;;;8.83;2.60;;;;;;;17.04;nan;100318.06;4960276;29;20187;-82
2023/07/02 07:51:39;;;;;;;3.13;2.87;;;;;;;17.17;nan;100323.13;4967369;29;20182;-81
2023/07/02 07:54:04;;;;;;;2.20;1.97;;;;;;;17.12;nan;100315.13;4959827;29;20212;-81
2023/07/02 07:56:30;;;;;;;4.73;2.37;;;;;;;17.24;nan;100319.75;4969170;29;20170;-80
2023/07/02 07:58:55;;;;;;;24.73;4.13;;;;;;;17.38;nan;100344.13;4958199;29;20190;-84
2023/07/02 08:01:20;;;;;;;7.20;3.80;;;;;;;17.25;nan;100310.28;4955409;29;20708;-79
2023/07/02 08:03:46;;;;;;;3.83;2.57;;;;;;;17.21;nan;100323.19;4954484;29;20206;-83
2023/07/02 08:06:11;;;;;;;11.13;4.57;;;;;;;17.19;nan;100312.50;4955133;29;20189;-80
2023/07/02 08:08:37;;;;;;;13.70;5.87;;;;;;;17.22;nan;100313.78;4958581;29;20209;-79
2023/07/02 08:11:02;;;;;;;5.43;2.97;;;;;;;17.39;nan;100318.91;4958200;29;20190;-78
2023/07/02 08:13:28;;;;;;;3.37;2.00;;;;;;;17.39;nan;100329.16;4957164;29;20725;-78
2023/07/02 08:15:53;;;;;;;2.43;2.23;;;;;;;17.38;nan;100336.63;4959657;28;20195;-79
2023/07/02 08:18:18;;;;;;;6.77;2.27;;;;;;;17.60;nan;100337.09;4962860;28;20251;-78
2023/07/02 08:20:44;;;;;;;6.50;4.73;;;;;;;17.63;nan;100328.88;4962289;29;20202;-79
2023/07/02 08:23:09;;;;;;;1.33;1.30;;;;;;;17.65;nan;100340.41;4962642;29;20207;-79
2023/07/02 08:25:34;;;;;;;2.63;1.93;;;;;;;17.62;nan;100335.56;4963395;29;20302;-79
2023/07/02 08:28:00;;;;;;;4.70;3.00;;;;;;;17.53;nan;100323.94;4961539;29;20482;-79
2023/07/02 08:30:25;;;;;;;4.27;3.30;;;;;;;17.32;nan;100318.72;4963087;29;20233;-77
2023/07/02 08:32:50;;;;;;;3.33;2.63;;;;;;;17.19;nan;100318.03;4962360;29;20767;-79
2023/07/02 08:35:16;;;;;;;3.93;2.47;;;;;;;17.14;nan;100337.66;4962465;29;20182;-78
2023/07/02 08:37:41;;;;;;;14.67;2.57;;;;;;;17.12;nan;100334.44;4962642;29;20183;-78
2023/07/02 08:40:15;;;;;;;3.07;2.33;;;;;;;17.08;nan;100333.56;4961311;29;20194;-78
2023/07/02 08:42:41;;;;;;;2.33;2.13;;;;;;;17.09;nan;100332.41;4962914;29;20544;-79
2023/07/02 08:45:07;;;;;;;6.53;3.17;;;;;;;17.14;nan;100345.13;4962066;29;20265;-78
2023/07/02 08:47:33;;;;;;;8.60;2.77;;;;;;;17.12;nan;100341.94;4957340;29;20210;-77
2023/07/02 08:49:58;;;;;;;4.93;2.50;;;;;;;17.10;nan;100339.53;4958936;29;20182;-77
2023/07/02 08:52:24;;;;;;;16.97;4.57;;;;;;;16.89;nan;100336.22;4960541;29;20182;-77
2023/07/02 08:54:49;;;;;;;2.53;2.10;;;;;;;16.90;nan;100352.44;4960666;29;20206;-77
2023/07/02 08:57:14;;;;;;;4.80;3.57;;;;;;;17.00;nan;100340.06;4961188;29;20175;-78
2023/07/02 08:59:40;;;;;;;3.73;1.57;;;;;;;17.01;nan;100347.19;4959441;29;20186;-77
2023/07/02 09:02:06;;;;;;;8.37;3.70;;;;;;;17.23;nan;100365.88;4960968;29;20193;-78
2023/07/02 09:04:31;;;;;;;3.17;2.87;;;;;;;17.37;nan;100362.66;4959370;29;20261;-77
2023/07/02 09:07:08;;;;;;;3.10;2.70;;;;;;;17.42;nan;100354.09;4959771;29;20677;-77
2023/07/02 09:09:45;;;;;;;10.30;4.10;;;;;;;17.41;nan;100341.44;4959560;29;20194;-79
2023/07/02 09:12:22;;;;;;;3.27;1.93;;;;;;;17.40;nan;100344.56;4960815;29;20205;-77
2023/07/02 09:14:54;;;;;;;4.13;1.37;;;;;;;17.53;nan;100352.38;4960993;29;20202;-77
2023/07/02 09:17:19;;;;;;;0.87;0.87;;;;;;;17.68;nan;100361.81;4959204;29;20660;-79
2023/07/02 09:19:51;;;;;;;3.63;2.50;;;;;;;17.61;nan;100336.75;4960615;29;20193;-77
2023/07/02 09:22:17;;;;;;;1.57;0.80;;;;;;;17.65;nan;100345.09;4960735;29;20265;-78
2023/07/02 09:24:51;;;;;;;6.53;5.20;;;;;;;17.76;nan;100340.63;4960631;29;20304;-77
2023/07/02 09:27:17;;;;;;;5.13;3.03;;;;;;;18.09;nan;100359.50;4959927;28;20206;-78
2023/07/02 09:29:42;;;;;;;5.23;3.67;;;;;;;18.46;nan;100370.09;4959931;29;20198;-77
2023/07/02 09:32:07;;;;;;;3.77;2.57;;;;;;;18.49;nan;100359.09;4960038;29;20256;-79
2023/07/02 09:34:37;;;;;;;6.13;4.57;;;;;;;18.46;nan;100372.88;4960251;29;20206;-79
2023/07/02 09:37:05;;;;;;;8.07;4.10;;;;;;;18.23;nan;100359.81;4960579;29;20269;-77
2023/07/02 09:39:33;;;;;;;5.03;3.70;;;;;;;18.29;nan;100363.88;4959906;28;20202;-78
2023/07/02 09:42:00;;;;;;;8.77;3.07;;;;;;;18.50;nan;100390.31;4959023;29;20281;-78
2023/07/02 09:44:30;;;;;;;13.10;2.43;;;;;;;18.40;nan;100366.84;4958566;29;20275;-77
2023/07/02 09:47:01;;;;;;;3.33;1.87;;;;;;;18.54;nan;100380.16;4960093;29;20262;-78
2023/07/02 09:49:31;;;;;;;4.80;3.03;;;;;;;18.70;nan;100386.41;4959224;29;20257;-79
2023/07/02 09:51:56;;;;;;;4.73;3.13;;;;;;;18.60;nan;100342.69;4961018;29;20264;-79
2023/07/02 09:54:22;;;;;;;3.57;3.27;;;;;;;18.53;nan;100346.16;4961789;29;20494;-79
2023/07/02 09:56:47;;;;;;;5.63;3.67;;;;;;;18.51;nan;100350.41;4960557;29;20174;-79
2023/07/02 09:59:13;;;;;;;12.97;4.50;;;;;;;18.71;nan;100383.28;4960044;29;20269;-79
2023/07/02 10:01:39;;;;;;;2.30;1.23;;;;;;;18.70;nan;100372.56;4960974;29;20242;-79
2023/07/02 10:04:14;;;;;;;6.53;2.87;;;;;;;18.95;nan;100379.34;4960549;29;20226;-79
2023/07/02 10:06:48;;;;;;;11.37;4.20;;;;;;;18.94;nan;100366.66;4959713;28;20186;-79
2023/07/02 10:09:13;;;;;;;11.80;5.00;;;;;;;18.68;nan;100342.50;4959887;29;20327;-78
2023/07/02 10:11:38;;;;;;;3.40;2.07;;;;;;;18.47;nan;100355.09;4960214;29;20220;-79
2023/07/02 10:14:04;;;;;;;4.07;2.50;;;;;;;18.67;nan;100357.50;4960266;29;20210;-79
2023/07/02 10:16:31;;;;;;;9.37;4.37;;;;;;;18.89;nan;100391.09;4959800;29;20190;-78
2023/07/02 10:19:08;;;;;;;5.40;2.77;;;;;;;19.10;nan;100393.44;4960253;29;20170;-79
2023/07/02 10:21:33;;;;;;;4.63;3.93;;;;;;;19.05;nan;100399.28;4959066;29;20716;-78
2023/07/02 10:24:11;;;;;;;6.57;5.10;;;;;;;19.18;nan;100390.41;5055266;23;20252;-79
2023/07/02 10:26:37;;;;;;;4.73;2.80;;;;;;;19.16;nan;100375.31;4994594;28;20184;-78
2023/07/02 10:29:02;;;;;;;3.03;2.73;;;;;;;19.05;nan;100377.13;4994162;28;20604;-79
2023/07/02 10:31:28;;;;;;;4.17;3.53;;;;;;;18.89;nan;100383.56;4991239;28;20211;-78
2023/07/02 10:33:54;;;;;;;3.00;2.63;;;;;;;18.55;nan;100371.47;4974967;28;20281;-79
2023/07/02 10:36:23;;;;;;;3.90;2.20;;;;;;;18.30;nan;100364.66;4972241;28;20190;-78
2023/07/02 10:38:50;;;;;;;3.50;3.17;;;;;;;18.04;nan;100357.81;4974445;28;20663;-79
2023/07/02 10:41:29;;;;;;;7.13;3.27;;;;;;;18.19;nan;100364.44;4974606;28;20222;-79
2023/07/02 10:44:05;;;;;;;4.80;3.27;;;;;;;18.60;nan;100382.22;4973805;28;20185;-80
2023/07/02 10:46:30;;;;;;;13.80;4.07;;;;;;;18.83;nan;100382.31;4974948;28;20200;-79
2023/07/02 10:48:57;;;;;;;5.73;3.20;;;;;;;18.99;nan;100390.47;4974880;28;20271;-78
2023/07/02 10:51:23;;;;;;;9.20;2.87;;;;;;;19.33;nan;100392.22;4972095;28;20221;-78
2023/07/02 10:53:59;;;;;;;3.53;2.97;;;;;;;19.48;nan;100386.91;4975224;28;20185;-78
2023/07/02 10:56:27;;;;;;;4.73;3.63;;;;;;;19.58;nan;100394.63;4974720;28;20536;-78
2023/07/02 10:58:54;;;;;;;8.03;3.50;;;;;;;19.74;nan;100389.69;4974382;28;20228;-78
2023/07/02 11:01:23;;;;;;;1.47;1.13;;;;;;;20.02;nan;100444.75;4973996;28;20727;-79
2023/07/02 11:04:02;;;;;;;13.43;2.63;;;;;;;19.85;nan;100381.53;4974726;28;20595;-79
2023/07/02 11:06:28;;;;;;;7.53;3.47;;;;;;;19.51;nan;100384.19;4974658;28;20186;-78
2023/07/02 11:08:55;;;;;;;2.87;2.43;;;;;;;19.41;nan;100375.72;4974466;28;20567;-79
2023/07/02 11:11:22;;;;;;;5.83;3.20;;;;;;;19.73;nan;100406.72;4972069;28;20193;-78
2023/07/02 11:13:49;;;;;;;5.97;3.27;;;;;;;20.06;nan;100434.50;4974103;28;20200;-78
2023/07/02 11:16:26;;;;;;;2.50;1.37;;;;;;;19.99;nan;100409.47;4973917;28;20188;-78
2023/07/02 11:19:08;;;;;;;6.93;2.07;;;;;;;20.08;nan;100400.84;4977454;28;20189;-78
2023/07/02 11:21:34;;;;;;;3.73;2.87;;;;;;;19.89;nan;100391.50;4973928;28;20231;-78
2023/07/02 11:24:03;;;;;;;1.93;1.50;;;;;;;19.73;nan;100393.66;4973713;28;20284;-78
2023/07/02 11:26:39;;;;;;;3.87;2.43;;;;;;;19.33;nan;100367.28;4980941;28;20190;-79
2023/07/02 11:29:10;;;;;;;3.63;2.67;;;;;;;19.03;nan;100356.13;4972567;28;20193;-79
2023/07/02 11:31:35;;;;;;;4.13;3.77;;;;;;;18.98;nan;100403.53;4974148;28;20232;-79
2023/07/02 11:34:01;;;;;;;10.63;3.70;;;;;;;19.00;nan;100398.41;4972314;28;20647;-79
2023/07/02 11:36:26;;;;;;;4.10;3.33;;;;;;;19.06;nan;100395.31;4973954;28;20182;-79
2023/07/02 11:38:52;;;;;;;4.30;3.43;;;;;;;19.15;nan;100399.44;4984316;28;20268;-80